SI-0019 weather

Vzletišče Črnotiče
Črnotiče, Koper, Slovenia

Public forecast

Using degrees Celsius for public forecast. Weather courtesy of forecast.io.

Closest aviation weather report (METAR) to Vzletišče Črnotiče

Closest report is Portoroz Airport, 13.5 nm (25.0 km) WSW. Retrieved 2020/08/06 06:30 UTC (16 minutes ago):

LJPZ 060630Z 05005KT 350V120 9999 FEW030 BKN130 23/15 Q1015

Closest aviation forecast (TAF) to Vzletišče Črnotiče

Closest forecast is Trieste–Friuli Venezia Giulia Airport, 24.5 nm (45.5 km) NW. Retrieved 2020/08/06 06:00 UTC (46 minutes ago):

TAF LIPQ 060531Z 0606/0706 06010KT 9999 SCT050